createdAt,value
2023-10-14T00:00:30.137Z,87.50
2023-10-14T00:01:15.754Z,88.31
2023-10-14T00:02:26.207Z,88.27
2023-10-14T00:03:20.019Z,88.21
2023-10-14T00:03:57.783Z,88.31
2023-10-14T00:04:33.824Z,88.24
2023-10-14T00:05:09.515Z,88.48
2023-10-14T00:05:45.336Z,88.43
2023-10-14T00:06:21.425Z,87.94
2023-10-14T00:06:59.712Z,87.48
2023-10-14T00:07:35.366Z,87.24
2023-10-14T00:08:14.824Z,87.22
2023-10-14T00:08:59.925Z,86.79
2023-10-14T00:09:37.056Z,86.55
2023-10-14T00:10:45.601Z,86.97
2023-10-14T00:11:20.169Z,86.64
2023-10-14T00:11:57.332Z,86.37
2023-10-14T00:12:32.524Z,86.55
2023-10-14T00:13:12.385Z,87.13
2023-10-14T00:14:00.106Z,86.75
2023-10-14T00:14:38.543Z,86.91
2023-10-14T00:15:14.707Z,86.91
2023-10-14T00:15:50.261Z,86.89
2023-10-14T00:16:32.212Z,87.12
2023-10-14T00:17:13.173Z,86.82
2023-10-14T00:17:50.772Z,87.10
2023-10-14T00:18:27.544Z,86.73
2023-10-14T00:19:05.380Z,86.66
2023-10-14T00:19:40.168Z,86.82
2023-10-14T00:20:16.189Z,86.52
2023-10-14T00:20:54.330Z,86.61
2023-10-14T00:21:29.857Z,86.75
2023-10-14T00:22:07.132Z,86.79
2023-10-14T00:22:45.895Z,86.70
2023-10-14T00:23:25.257Z,87.04
2023-10-14T00:24:02.906Z,86.63
2023-10-14T00:24:41.254Z,86.65
2023-10-14T00:26:18.262Z,86.95
2023-10-14T00:27:27.892Z,86.91
2023-10-14T00:28:08.412Z,86.97
2023-10-14T00:28:48.104Z,86.63
2023-10-14T00:29:23.783Z,86.45
2023-10-14T00:30:13.825Z,86.67
2023-10-14T00:30:49.490Z,86.75
2023-10-14T00:32:16.460Z,87.44
2023-10-14T00:32:51.955Z,87.40
2023-10-14T00:33:29.988Z,86.86
2023-10-14T00:34:05.876Z,86.72
2023-10-14T00:34:41.301Z,86.52
2023-10-14T00:35:21.003Z,86.88
2023-10-14T00:35:57.638Z,86.64
2023-10-14T00:36:33.857Z,86.43
2023-10-14T00:37:10.106Z,85.88
2023-10-14T00:37:52.935Z,85.88
2023-10-14T00:38:32.096Z,86.22
2023-10-14T00:39:28.048Z,86.01
2023-10-14T00:40:26.475Z,86.74
2023-10-14T00:41:12.792Z,86.17
2023-10-14T00:41:54.074Z,86.16
2023-10-14T00:42:35.971Z,85.23
2023-10-14T00:43:11.877Z,85.15
2023-10-14T00:43:47.629Z,85.69
2023-10-14T00:44:28.116Z,85.48
2023-10-14T00:45:20.327Z,85.00
2023-10-14T00:46:33.918Z,84.57
2023-10-14T00:47:20.357Z,85.52
2023-10-14T00:48:29.644Z,85.05
2023-10-14T00:49:06.165Z,84.88
2023-10-14T00:49:44.199Z,84.38
2023-10-14T00:50:35.644Z,84.54
2023-10-14T00:51:21.720Z,84.20
2023-10-14T00:52:35.924Z,83.76
2023-10-14T00:53:12.708Z,83.40
2023-10-14T00:53:55.112Z,83.23
2023-10-14T00:54:36.696Z,83.12
2023-10-14T00:55:15.579Z,82.94
2023-10-14T00:55:51.932Z,82.65
2023-10-14T00:56:30.401Z,82.26
2023-10-14T00:57:18.969Z,82.70
2023-10-14T00:57:59.405Z,83.24
2023-10-14T00:58:46.738Z,83.63
2023-10-14T00:59:27.349Z,83.23
2023-10-14T01:00:02.913Z,82.81
2023-10-14T01:00:39.630Z,83.53
2023-10-14T01:01:19.494Z,83.67
2023-10-14T01:02:00.553Z,83.14
2023-10-14T01:02:40.610Z,83.27
2023-10-14T01:03:19.401Z,83.83
2023-10-14T01:03:58.640Z,83.81
2023-10-14T01:04:36.101Z,84.12
2023-10-14T01:05:47.009Z,84.56
2023-10-14T01:06:36.405Z,84.10
2023-10-14T01:07:17.913Z,84.60
2023-10-14T01:08:02.972Z,84.28
2023-10-14T01:08:47.354Z,84.15
2023-10-14T01:09:32.896Z,84.58
2023-10-14T01:10:25.497Z,84.33
2023-10-14T01:11:04.897Z,84.67
2023-10-14T01:11:41.227Z,84.29
2023-10-14T01:12:23.082Z,83.87
2023-10-14T01:13:07.938Z,83.69
2023-10-14T01:14:20.422Z,83.74
2023-10-14T01:14:59.832Z,84.03
2023-10-14T01:16:11.675Z,83.77
2023-10-14T01:20:59.613Z,83.26
2023-10-14T01:22:15.641Z,83.54
2023-10-14T01:23:16.825Z,84.16
2023-10-14T01:24:02.887Z,83.12
2023-10-14T01:25:33.870Z,83.04
2023-10-14T01:27:47.705Z,82.80
2023-10-14T01:28:31.979Z,82.84
2023-10-14T01:29:13.329Z,82.21
2023-10-14T01:29:59.773Z,82.25
2023-10-14T01:32:12.339Z,80.90
2023-10-14T01:32:49.471Z,80.96
2023-10-14T01:34:07.004Z,80.69
2023-10-14T01:35:55.630Z,80.69
2023-10-14T01:36:46.798Z,80.58
2023-10-14T01:37:58.635Z,80.76
2023-10-14T01:38:47.378Z,80.97
2023-10-14T01:39:27.024Z,80.80
2023-10-14T01:41:00.426Z,80.41
2023-10-14T01:41:36.797Z,80.37
2023-10-14T01:42:15.157Z,79.99
2023-10-14T01:42:58.801Z,80.57
2023-10-14T01:43:48.617Z,80.72
2023-10-14T01:44:24.090Z,80.86
2023-10-14T01:45:57.810Z,80.29
2023-10-14T01:47:09.255Z,80.72
2023-10-14T01:48:27.449Z,80.44
2023-10-14T01:49:38.086Z,81.22
2023-10-14T01:50:17.074Z,81.38
2023-10-14T01:50:57.414Z,80.83
2023-10-14T01:51:37.699Z,81.69
2023-10-14T01:52:21.196Z,81.24
2023-10-14T01:53:10.087Z,81.58
2023-10-14T01:53:44.750Z,81.38
2023-10-14T01:54:29.360Z,81.42
2023-10-14T01:55:47.594Z,81.51
2023-10-14T01:56:30.981Z,81.50
2023-10-14T01:57:11.294Z,81.34
2023-10-14T01:57:48.089Z,81.61
2023-10-14T01:58:31.396Z,80.91
2023-10-14T01:59:09.737Z,81.28
2023-10-14T01:59:51.899Z,81.34
2023-10-14T02:00:29.428Z,81.90
2023-10-14T02:01:12.019Z,81.23
2023-10-14T02:02:22.379Z,81.91
2023-10-14T02:03:08.243Z,81.94
2023-10-14T02:03:49.336Z,81.75
2023-10-14T02:04:23.956Z,81.75
2023-10-14T02:04:59.091Z,82.08
2023-10-14T02:05:43.300Z,81.99
2023-10-14T02:06:21.829Z,82.35
2023-10-14T02:07:22.871Z,83.14
2023-10-14T02:08:02.045Z,82.86
2023-10-14T02:08:40.007Z,83.53
2023-10-14T02:09:18.526Z,83.35
2023-10-14T02:10:01.751Z,83.78
2023-10-14T02:10:37.229Z,84.09
2023-10-14T02:11:22.540Z,84.00
2023-10-14T02:11:58.989Z,84.55
2023-10-14T02:12:37.180Z,84.73
2023-10-14T02:13:12.915Z,84.85
2023-10-14T02:13:52.383Z,84.80
2023-10-14T02:14:29.203Z,84.81
2023-10-14T02:15:03.396Z,85.10
2023-10-14T02:16:26.936Z,85.47
2023-10-14T02:17:02.384Z,85.77
2023-10-14T02:17:37.087Z,85.64
2023-10-14T02:18:12.916Z,85.59
2023-10-14T02:18:51.287Z,85.98
2023-10-14T02:19:28.596Z,86.40
2023-10-14T02:20:21.655Z,85.61
2023-10-14T02:20:58.523Z,85.58
2023-10-14T02:21:34.073Z,85.62
2023-10-14T02:22:13.964Z,85.70
2023-10-14T02:22:51.392Z,85.44
2023-10-14T02:23:30.680Z,85.18
2023-10-14T02:24:11.565Z,85.57
2023-10-14T02:24:54.851Z,87.06
2023-10-14T02:26:23.220Z,87.04
2023-10-14T02:27:02.718Z,86.79
2023-10-14T02:27:46.084Z,87.08
2023-10-14T02:28:42.949Z,87.77
2023-10-14T02:29:20.311Z,87.50
2023-10-14T02:30:41.403Z,88.25
2023-10-14T02:31:53.156Z,87.73
2023-10-14T02:32:31.926Z,87.85
2023-10-14T02:33:12.785Z,87.50
2023-10-14T02:33:55.820Z,87.43
2023-10-14T02:35:00.059Z,88.02
2023-10-14T02:36:15.959Z,86.69
2023-10-14T02:36:54.384Z,86.84
2023-10-14T02:37:31.890Z,86.65
2023-10-14T02:38:06.420Z,86.96
2023-10-14T02:38:45.933Z,86.63
2023-10-14T02:39:32.914Z,86.39
2023-10-14T02:40:31.529Z,86.36
2023-10-14T02:41:11.133Z,85.69
2023-10-14T02:42:10.731Z,85.55
2023-10-14T02:42:46.871Z,85.36
2023-10-14T02:44:46.354Z,85.28
2023-10-14T02:46:02.618Z,84.51
2023-10-14T02:46:46.856Z,84.36
2023-10-14T02:48:13.959Z,84.16
2023-10-14T02:48:55.854Z,84.01
2023-10-14T02:49:40.950Z,83.65
2023-10-14T02:50:29.853Z,83.79
2023-10-14T02:51:07.830Z,83.76
2023-10-14T02:51:48.181Z,82.89
2023-10-14T02:53:09.752Z,82.94
2023-10-14T02:53:54.928Z,82.88
2023-10-14T02:54:35.504Z,82.45
2023-10-14T02:55:27.937Z,82.30
2023-10-14T02:56:06.809Z,82.20
2023-10-14T02:57:51.017Z,81.84
2023-10-14T02:59:06.156Z,81.76
2023-10-14T02:59:45.358Z,81.45
2023-10-14T03:00:32.462Z,81.78
2023-10-14T03:01:20.850Z,81.22
2023-10-14T03:03:20.496Z,81.46
2023-10-14T03:04:12.376Z,81.65
2023-10-14T03:04:53.954Z,81.21
2023-10-14T03:06:55.229Z,81.63
2023-10-14T03:07:41.511Z,80.87
2023-10-14T03:08:29.774Z,81.44
2023-10-14T03:09:11.637Z,81.10
2023-10-14T03:09:47.002Z,81.19
2023-10-14T03:10:28.724Z,81.01
2023-10-14T03:11:20.619Z,80.84
2023-10-14T03:12:00.924Z,80.75
2023-10-14T03:14:48.318Z,80.60
2023-10-14T03:15:23.660Z,81.31
2023-10-14T03:16:32.914Z,81.01
2023-10-14T03:17:15.798Z,80.67
2023-10-14T03:18:17.265Z,80.76
2023-10-14T03:18:52.426Z,81.55
2023-10-14T03:19:33.031Z,80.82
2023-10-14T03:20:29.684Z,80.78
2023-10-14T03:21:31.826Z,80.83
2023-10-14T03:22:18.941Z,81.17
2023-10-14T03:23:01.916Z,81.09
2023-10-14T03:23:37.785Z,80.74
2023-10-14T03:24:22.906Z,80.80
2023-10-14T03:25:09.657Z,80.38
2023-10-14T03:25:47.516Z,80.83
2023-10-14T03:26:22.303Z,81.19
2023-10-14T03:27:19.077Z,80.88
2023-10-14T03:29:07.706Z,80.27
2023-10-14T03:29:48.042Z,80.11
2023-10-14T03:31:10.301Z,80.30
2023-10-14T03:31:46.574Z,80.59
2023-10-14T03:32:35.141Z,80.50
2023-10-14T03:33:13.369Z,81.12
2023-10-14T03:33:50.333Z,81.34
2023-10-14T03:34:32.394Z,80.51
2023-10-14T03:35:14.735Z,80.64
2023-10-14T03:36:06.350Z,80.62
2023-10-14T03:36:44.084Z,80.96
2023-10-14T03:37:28.412Z,80.77
2023-10-14T03:38:17.965Z,81.38
2023-10-14T03:39:04.519Z,80.67
2023-10-14T03:39:50.850Z,80.72
2023-10-14T03:40:43.712Z,80.52
2023-10-14T03:41:20.950Z,80.74
2023-10-14T03:41:56.935Z,80.47
2023-10-14T03:42:44.360Z,80.06
2023-10-14T03:43:22.601Z,80.09
2023-10-14T03:44:01.290Z,80.05
2023-10-14T03:45:31.121Z,80.60
2023-10-14T03:46:45.689Z,80.16
2023-10-14T03:47:21.464Z,79.88
2023-10-14T03:48:01.797Z,80.73
2023-10-14T03:48:40.327Z,80.57
2023-10-14T03:49:27.498Z,79.96
2023-10-14T03:50:39.786Z,80.32
2023-10-14T03:52:06.191Z,80.04
2023-10-14T03:52:46.505Z,79.60
2023-10-14T03:53:21.936Z,79.70
2023-10-14T03:54:48.836Z,79.54
2023-10-14T03:55:59.976Z,80.17
2023-10-14T03:56:41.078Z,79.66
2023-10-14T03:57:34.735Z,79.66
2023-10-14T03:58:15.414Z,79.33
2023-10-14T03:58:55.015Z,79.85
2023-10-14T03:59:34.895Z,78.94
2023-10-14T04:00:23.131Z,78.94
2023-10-14T04:01:13.926Z,78.91
2023-10-14T04:01:56.350Z,78.89
2023-10-14T04:03:17.698Z,79.24
2023-10-14T04:03:54.941Z,79.17
2023-10-14T04:04:39.550Z,78.77
2023-10-14T04:05:16.479Z,79.25
2023-10-14T04:05:54.426Z,78.88
2023-10-14T04:06:35.814Z,79.10
2023-10-14T04:07:11.568Z,79.64
2023-10-14T04:07:46.437Z,79.38
2023-10-14T04:08:32.982Z,79.41
2023-10-14T04:09:11.979Z,79.43
2023-10-14T04:09:53.742Z,79.14
2023-10-14T04:10:36.235Z,79.32
2023-10-14T04:11:14.791Z,79.29
2023-10-14T04:11:54.073Z,79.99
2023-10-14T04:12:41.857Z,79.93
2023-10-14T04:13:16.079Z,80.38
2023-10-14T04:14:16.901Z,80.33
2023-10-14T04:14:56.267Z,80.64
2023-10-14T04:15:29.951Z,80.17
2023-10-14T04:16:08.910Z,80.09
2023-10-14T04:16:47.873Z,80.46
2023-10-14T04:17:24.583Z,80.46
2023-10-14T04:18:00.580Z,80.90
2023-10-14T04:25:08.321Z,82.00
2023-10-14T04:25:45.150Z,81.50
2023-10-14T04:26:53.590Z,81.99
2023-10-14T04:27:29.844Z,82.12
2023-10-14T04:28:15.132Z,81.74
2023-10-14T04:28:57.988Z,81.65
2023-10-14T04:29:40.954Z,82.01
2023-10-14T04:30:57.782Z,82.35
2023-10-14T04:31:41.866Z,81.93
2023-10-14T04:32:18.848Z,82.71
2023-10-14T04:32:57.444Z,82.41
2023-10-14T04:33:36.906Z,82.41
2023-10-14T04:34:45.442Z,82.86
2023-10-14T04:35:26.053Z,82.17
2023-10-14T04:36:16.584Z,82.59
2023-10-14T04:36:58.174Z,81.75
2023-10-14T04:37:53.239Z,81.51
2023-10-14T04:38:39.873Z,81.77
2023-10-14T04:39:18.540Z,81.58
2023-10-14T04:40:13.324Z,81.73
2023-10-14T04:41:04.964Z,81.59
2023-10-14T04:42:42.645Z,82.36
2023-10-14T04:43:40.808Z,82.40
2023-10-14T04:44:23.076Z,82.48
2023-10-14T04:45:07.355Z,82.55
2023-10-14T04:46:00.464Z,81.92
2023-10-14T04:49:09.415Z,82.00
2023-10-14T04:49:53.564Z,81.72
2023-10-14T04:50:43.957Z,81.06
2023-10-14T04:51:47.477Z,80.98
2023-10-14T04:52:24.701Z,81.43
2023-10-14T04:53:50.040Z,80.69
2023-10-14T04:55:34.379Z,81.05
2023-10-14T04:56:13.220Z,80.40
2023-10-14T04:56:49.243Z,80.14
2023-10-14T04:57:28.203Z,80.48
2023-10-14T04:58:18.214Z,79.98
2023-10-14T04:58:54.718Z,80.28
2023-10-14T05:00:40.144Z,80.20
2023-10-14T05:02:51.490Z,79.69
2023-10-14T05:04:32.817Z,79.57
2023-10-14T05:05:24.007Z,79.25
2023-10-14T05:06:15.744Z,78.90
2023-10-14T05:07:49.475Z,79.16
2023-10-14T05:08:46.504Z,79.03
2023-10-14T05:09:42.028Z,79.56
2023-10-14T05:10:17.709Z,79.63
2023-10-14T05:10:54.579Z,79.19
2023-10-14T05:13:34.562Z,79.59
2023-10-14T05:14:50.828Z,79.21
2023-10-14T05:15:31.514Z,79.75
2023-10-14T05:18:04.055Z,79.30
2023-10-14T05:20:19.942Z,78.82
2023-10-14T05:21:24.127Z,78.71
2023-10-14T05:22:06.019Z,79.07
2023-10-14T05:23:14.570Z,79.29
2023-10-14T05:23:55.479Z,78.60
2023-10-14T05:24:33.194Z,79.18
2023-10-14T05:25:55.350Z,78.81
2023-10-14T05:26:34.101Z,79.45
2023-10-14T05:28:10.171Z,79.67
2023-10-14T05:28:46.264Z,79.20
2023-10-14T05:29:31.628Z,80.09
2023-10-14T05:30:11.175Z,80.16
2023-10-14T05:30:50.989Z,79.98
2023-10-14T05:31:32.403Z,80.43
2023-10-14T05:32:12.886Z,80.40
2023-10-14T05:32:55.710Z,80.51
2023-10-14T05:33:33.070Z,80.19
2023-10-14T05:34:10.781Z,80.31
2023-10-14T05:34:46.945Z,80.11
2023-10-14T05:35:25.360Z,80.38
2023-10-14T05:36:02.622Z,80.21
2023-10-14T05:36:36.564Z,79.63
2023-10-14T05:37:14.927Z,79.91
2023-10-14T05:37:57.183Z,79.99
2023-10-14T05:38:35.102Z,79.82
2023-10-14T05:39:12.103Z,79.09
2023-10-14T05:39:47.535Z,79.29
2023-10-14T05:40:27.477Z,79.55
2023-10-14T05:42:01.065Z,78.79
2023-10-14T05:42:36.469Z,79.15
2023-10-14T05:43:12.344Z,78.43
2023-10-14T05:43:50.841Z,78.57
2023-10-14T05:44:32.201Z,78.61
2023-10-14T05:45:06.118Z,78.31
2023-10-14T05:45:41.243Z,78.66
2023-10-14T05:46:17.756Z,78.75
2023-10-14T05:47:30.865Z,77.72
2023-10-14T05:48:09.857Z,77.51
2023-10-14T05:48:46.160Z,77.59
2023-10-14T05:51:56.408Z,77.72
2023-10-14T05:52:31.619Z,78.17
2023-10-14T05:53:09.997Z,77.51
2023-10-14T05:54:45.346Z,77.61
2023-10-14T05:56:55.317Z,77.67
2023-10-14T05:57:31.259Z,78.13
2023-10-14T05:58:08.331Z,78.10
2023-10-14T05:58:50.254Z,78.40
2023-10-14T06:00:22.725Z,78.76
2023-10-14T06:00:55.695Z,77.87
2023-10-14T06:01:31.391Z,77.61
2023-10-14T06:02:18.997Z,77.68
2023-10-14T06:02:58.815Z,77.96
2023-10-14T06:04:29.095Z,78.61
2023-10-14T06:05:37.596Z,78.17
2023-10-14T06:06:17.348Z,77.96
2023-10-14T06:06:51.657Z,78.46
2023-10-14T06:07:25.379Z,78.32
2023-10-14T06:08:07.389Z,78.37
2023-10-14T06:08:44.715Z,78.14
2023-10-14T06:09:20.582Z,78.02
2023-10-14T06:10:33.042Z,78.16
2023-10-14T06:11:09.311Z,78.02
2023-10-14T06:11:48.448Z,77.69
2023-10-14T06:12:25.410Z,78.11
2023-10-14T06:13:01.101Z,77.90
2023-10-14T06:13:37.016Z,77.63
2023-10-14T06:14:23.596Z,77.76
2023-10-14T06:15:01.366Z,77.54
2023-10-14T06:15:47.960Z,77.68
2023-10-14T06:16:21.413Z,77.63
2023-10-14T06:16:59.651Z,77.19
2023-10-14T06:17:45.525Z,77.26
2023-10-14T06:18:21.366Z,77.10
2023-10-14T06:18:58.713Z,76.94
2023-10-14T06:19:37.298Z,76.36
2023-10-14T06:20:15.823Z,76.23
2023-10-14T06:20:50.816Z,75.92
2023-10-14T06:22:42.761Z,76.64
2023-10-14T06:23:18.460Z,77.32
2023-10-14T06:24:31.310Z,76.12
2023-10-14T06:25:30.924Z,76.24
2023-10-14T06:26:08.051Z,76.55
2023-10-14T06:26:43.380Z,76.58
2023-10-14T06:27:23.792Z,75.24
2023-10-14T06:28:03.128Z,74.30
2023-10-14T06:28:52.830Z,74.67
2023-10-14T06:29:28.486Z,73.73
2023-10-14T06:30:20.626Z,72.85
2023-10-14T06:31:16.410Z,72.56
2023-10-14T06:31:54.932Z,72.44
2023-10-14T06:32:38.470Z,72.32
2023-10-14T06:33:13.944Z,71.55
2023-10-14T06:34:17.315Z,71.58
2023-10-14T06:35:00.197Z,71.49
2023-10-14T06:35:36.905Z,71.02
2023-10-14T06:36:18.284Z,71.49
2023-10-14T06:36:57.616Z,70.87
2023-10-14T06:37:41.764Z,70.46
2023-10-14T06:38:35.264Z,69.04
2023-10-14T06:39:44.412Z,68.10
2023-10-14T06:40:38.942Z,67.38
2023-10-14T06:41:18.703Z,67.07
2023-10-14T06:41:52.386Z,66.73
2023-10-14T06:42:29.013Z,66.56
2023-10-14T06:43:35.407Z,66.21
2023-10-14T06:44:55.305Z,65.80
2023-10-14T06:45:40.103Z,65.25
2023-10-14T06:46:49.129Z,64.76
2023-10-14T06:47:23.933Z,64.92
2023-10-14T06:48:41.990Z,64.21
2023-10-14T06:49:19.548Z,64.86
2023-10-14T06:49:55.949Z,63.23
2023-10-14T06:50:36.589Z,64.92
2023-10-14T06:51:20.988Z,65.25
2023-10-14T06:51:56.733Z,65.23
2023-10-14T06:52:36.792Z,64.86
2023-10-14T06:53:19.849Z,64.26
2023-10-14T06:53:58.047Z,63.35
2023-10-14T06:55:19.141Z,64.34
2023-10-14T06:56:04.146Z,62.82
2023-10-14T06:57:13.010Z,62.67
2023-10-14T06:58:02.453Z,62.91
2023-10-14T06:58:43.237Z,61.48
2023-10-14T06:59:55.515Z,62.78
2023-10-14T07:01:00.818Z,62.77
2023-10-14T07:01:40.041Z,61.54
2023-10-14T07:02:35.110Z,60.83
2023-10-14T07:03:21.555Z,59.48
2023-10-14T07:04:15.951Z,59.15
2023-10-14T07:04:54.718Z,60.49
2023-10-14T07:05:57.370Z,59.79
2023-10-14T07:07:12.002Z,59.51
2023-10-14T07:08:04.939Z,59.30
2023-10-14T07:08:41.583Z,59.71
2023-10-14T07:09:25.217Z,58.44
2023-10-14T07:10:37.192Z,58.08
2023-10-14T07:11:24.989Z,58.26
2023-10-14T07:13:33.838Z,58.44
2023-10-14T07:15:23.632Z,58.63
2023-10-14T07:16:07.616Z,58.25
2023-10-14T07:16:54.119Z,59.42
2023-10-14T07:17:52.555Z,57.96
2023-10-14T07:18:30.202Z,57.56
2023-10-14T07:19:08.089Z,57.72
2023-10-14T07:20:42.896Z,57.47
2023-10-14T07:21:51.952Z,56.20
2023-10-14T07:23:24.953Z,57.44
2023-10-14T07:24:06.828Z,56.76
2023-10-14T07:24:45.412Z,57.34
2023-10-14T07:25:32.917Z,57.79
2023-10-14T07:26:14.156Z,57.51
2023-10-14T07:26:59.221Z,58.24
2023-10-14T07:27:42.883Z,56.73
2023-10-14T07:28:43.387Z,55.89
2023-10-14T07:30:18.495Z,55.56
2023-10-14T07:31:42.046Z,55.80
2023-10-14T07:32:37.033Z,55.58
2023-10-14T07:33:52.793Z,56.16
2023-10-14T07:34:46.214Z,56.32
2023-10-14T07:35:42.281Z,56.30
2023-10-14T07:37:20.312Z,55.43
2023-10-14T07:38:08.576Z,55.32
2023-10-14T07:40:26.031Z,54.55
2023-10-14T07:42:36.578Z,54.95
2023-10-14T07:43:28.248Z,55.51
2023-10-14T07:44:15.567Z,56.02
2023-10-14T07:46:53.779Z,54.36
2023-10-14T07:47:39.632Z,54.59
2023-10-14T07:48:27.652Z,52.92
2023-10-14T07:49:09.981Z,53.81
2023-10-14T07:49:51.685Z,54.24
2023-10-14T07:50:44.310Z,54.23
2023-10-14T07:51:41.084Z,54.50
2023-10-14T07:53:48.816Z,53.43
2023-10-14T07:55:14.770Z,53.76
2023-10-14T07:56:16.798Z,54.16
2023-10-14T07:57:07.742Z,53.97
2023-10-14T07:59:15.721Z,54.56
2023-10-14T08:02:19.087Z,52.09
2023-10-14T08:03:23.290Z,52.10
2023-10-14T08:04:30.320Z,51.13
2023-10-14T08:06:39.811Z,53.17
2023-10-14T08:07:52.297Z,51.50
2023-10-14T08:08:38.279Z,50.88
2023-10-14T08:10:29.745Z,51.11
2023-10-14T08:12:05.263Z,50.99
2023-10-14T08:14:34.132Z,50.94
2023-10-14T08:16:10.751Z,49.79
2023-10-14T08:17:43.202Z,49.29
2023-10-14T08:19:35.069Z,50.02
2023-10-14T08:20:20.803Z,50.19
2023-10-14T08:21:02.121Z,50.85
2023-10-14T08:21:39.204Z,51.74
2023-10-14T08:22:20.799Z,51.66
2023-10-14T08:23:15.948Z,49.63
2023-10-14T08:23:51.483Z,50.04
2023-10-14T08:24:27.523Z,50.86
2023-10-14T08:25:59.376Z,49.75
2023-10-14T08:26:35.312Z,49.69
2023-10-14T08:27:13.572Z,48.91
2023-10-14T08:27:49.113Z,50.24
2023-10-14T08:28:31.059Z,48.35
2023-10-14T08:29:06.691Z,48.21
2023-10-14T08:29:43.226Z,49.21
2023-10-14T08:31:16.961Z,47.42
2023-10-14T08:32:26.421Z,47.26
2023-10-14T08:33:20.206Z,47.97
2023-10-14T08:34:12.686Z,47.55
2023-10-14T08:35:07.343Z,48.16
2023-10-14T08:36:44.856Z,49.02
2023-10-14T08:37:24.330Z,47.63
2023-10-14T08:38:26.865Z,48.70
2023-10-14T08:39:21.742Z,47.62
2023-10-14T08:41:56.879Z,48.58
2023-10-14T08:43:14.161Z,46.30
2023-10-14T08:44:05.163Z,47.61
2023-10-14T08:45:25.338Z,48.64
2023-10-14T08:46:45.574Z,49.62
2023-10-14T08:47:19.107Z,49.95
2023-10-14T08:48:16.474Z,49.90
2023-10-14T08:48:54.485Z,50.33
2023-10-14T08:49:32.294Z,50.24
2023-10-14T08:50:10.857Z,49.55
2023-10-14T08:51:01.648Z,50.57
2023-10-14T08:53:15.511Z,49.13
2023-10-14T08:57:04.890Z,48.02
2023-10-14T08:58:07.326Z,47.22
2023-10-14T08:59:03.588Z,47.81
2023-10-14T09:00:52.521Z,46.75
2023-10-14T09:01:59.918Z,46.97
2023-10-14T09:05:42.433Z,46.51
2023-10-14T09:08:16.796Z,47.85
2023-10-14T09:10:04.428Z,47.12
2023-10-14T09:10:46.119Z,47.63
2023-10-14T09:11:47.233Z,47.29
2023-10-14T09:12:25.098Z,46.58
2023-10-14T09:14:35.766Z,46.33
2023-10-14T09:16:11.718Z,46.33
2023-10-14T09:18:30.804Z,47.96
2023-10-14T09:19:51.450Z,47.96
2023-10-14T09:20:28.184Z,47.00
2023-10-14T09:21:12.378Z,48.20
2023-10-14T09:23:49.107Z,46.78
2023-10-14T09:24:38.475Z,46.11
2023-10-14T09:25:51.992Z,47.86
2023-10-14T09:26:50.958Z,48.45
2023-10-14T09:28:03.794Z,47.73
2023-10-14T09:28:48.589Z,47.17
2023-10-14T09:30:37.009Z,46.15
2023-10-14T09:31:14.793Z,45.39
2023-10-14T09:31:53.039Z,44.07
2023-10-14T09:32:45.947Z,45.25
2023-10-14T09:33:54.414Z,46.13
2023-10-14T09:34:33.180Z,45.67
2023-10-14T09:35:05.928Z,46.05
2023-10-14T09:35:39.362Z,45.34
2023-10-14T09:37:20.148Z,45.52
2023-10-14T09:38:05.156Z,45.00
2023-10-14T09:39:34.888Z,45.21
2023-10-14T09:40:26.995Z,44.46
2023-10-14T09:41:10.754Z,43.82
2023-10-14T09:42:48.147Z,44.23
2023-10-14T09:44:46.874Z,42.87
2023-10-14T09:45:24.245Z,43.81
2023-10-14T09:46:33.263Z,41.40
2023-10-14T09:47:32.111Z,42.95
2023-10-14T09:48:12.945Z,42.08
2023-10-14T09:48:53.292Z,42.07
2023-10-14T09:49:29.960Z,42.46
2023-10-14T09:50:14.056Z,42.40
2023-10-14T09:50:49.646Z,43.77
2023-10-14T09:51:23.850Z,43.50
2023-10-14T09:52:04.469Z,43.44
2023-10-14T09:52:42.520Z,43.04
2023-10-14T09:53:16.536Z,43.58
2023-10-14T09:53:51.415Z,44.12
2023-10-14T09:54:30.919Z,43.79
2023-10-14T09:55:08.288Z,44.13
2023-10-14T09:55:42.507Z,44.32
2023-10-14T09:56:17.233Z,44.33
2023-10-14T09:58:05.063Z,45.25
2023-10-14T09:58:42.521Z,43.83
2023-10-14T09:59:48.775Z,44.27
2023-10-14T10:01:00.922Z,44.44
2023-10-14T10:01:52.220Z,43.71
2023-10-14T10:03:23.851Z,44.32
2023-10-14T10:04:46.725Z,44.37
2023-10-14T10:05:50.405Z,44.78
2023-10-14T10:07:00.667Z,44.37
2023-10-14T10:07:48.000Z,44.51
2023-10-14T10:09:18.576Z,43.36
2023-10-14T10:10:30.065Z,44.07
2023-10-14T10:12:06.632Z,43.49
2023-10-14T10:12:43.225Z,43.82
2023-10-14T10:13:18.415Z,43.78
2023-10-14T10:14:18.347Z,43.04
2023-10-14T10:15:03.236Z,44.00
2023-10-14T10:15:36.924Z,42.93
2023-10-14T10:17:01.587Z,43.21
2023-10-14T10:17:40.686Z,42.71
2023-10-14T10:18:14.783Z,43.62
2023-10-14T10:19:03.291Z,43.58
2023-10-14T10:20:56.387Z,43.46
2023-10-14T10:21:31.218Z,42.51
2023-10-14T10:22:29.907Z,42.32
2023-10-14T10:24:25.742Z,43.01
2023-10-14T10:27:06.938Z,42.30
2023-10-14T10:27:46.729Z,42.42
2023-10-14T10:28:53.453Z,42.49
2023-10-14T10:29:26.555Z,42.54
2023-10-14T10:30:10.522Z,43.76
2023-10-14T10:30:43.234Z,43.56
2023-10-14T10:31:20.059Z,43.14
2023-10-14T10:32:11.205Z,43.37
2023-10-14T10:34:13.137Z,41.77
2023-10-14T10:35:59.748Z,42.34
2023-10-14T10:36:36.323Z,42.50
2023-10-14T10:37:10.559Z,42.31
2023-10-14T10:38:17.232Z,42.97
2023-10-14T10:38:56.767Z,42.85
2023-10-14T10:39:29.128Z,42.75
2023-10-14T10:41:34.084Z,42.58
2023-10-14T10:42:17.326Z,42.70
2023-10-14T10:43:38.277Z,42.90
2023-10-14T10:44:49.717Z,42.49
2023-10-14T10:45:39.856Z,42.86
2023-10-14T10:46:49.622Z,42.85
2023-10-14T10:47:31.265Z,42.65
2023-10-14T10:48:23.663Z,42.80
2023-10-14T10:50:16.336Z,42.17
2023-10-14T10:52:18.873Z,42.65
2023-10-14T10:53:20.166Z,42.67
2023-10-14T10:53:58.629Z,42.08
2023-10-14T10:55:09.081Z,42.69
2023-10-14T10:55:50.646Z,42.01
2023-10-14T10:56:23.114Z,40.97
2023-10-14T10:57:08.082Z,42.16
2023-10-14T10:57:41.050Z,41.89
2023-10-14T10:58:31.120Z,42.95
2023-10-14T10:59:05.899Z,43.26
2023-10-14T10:59:59.446Z,42.86
2023-10-14T11:00:54.393Z,41.92
2023-10-14T11:01:34.320Z,41.90
2023-10-14T11:02:11.911Z,42.22
2023-10-14T11:03:54.220Z,43.54
2023-10-14T11:04:31.554Z,42.53
2023-10-14T11:05:06.610Z,42.85
2023-10-14T11:06:36.507Z,42.21
2023-10-14T11:07:17.836Z,43.34
2023-10-14T11:08:29.176Z,41.96
2023-10-14T11:09:33.280Z,42.20
2023-10-14T11:10:05.657Z,42.83
2023-10-14T11:11:25.068Z,42.68
2023-10-14T11:12:15.685Z,42.07
2023-10-14T11:12:48.185Z,42.01
2023-10-14T11:13:25.396Z,42.54
2023-10-14T11:14:11.776Z,42.24
2023-10-14T11:14:55.572Z,42.20
2023-10-14T11:15:44.852Z,42.28
2023-10-14T11:16:17.200Z,41.62
2023-10-14T11:17:26.552Z,41.59
2023-10-14T11:18:05.032Z,41.93
2023-10-14T11:18:55.609Z,41.83
2023-10-14T11:19:36.755Z,42.89
2023-10-14T11:20:09.691Z,42.93
2023-10-14T11:22:19.182Z,42.74
2023-10-14T11:22:58.269Z,43.67
2023-10-14T11:23:42.314Z,42.32
2023-10-14T11:24:14.463Z,42.14
2023-10-14T11:25:28.328Z,42.34
2023-10-14T11:26:39.193Z,42.35
2023-10-14T11:27:18.196Z,43.13
2023-10-14T11:27:57.682Z,43.01
2023-10-14T11:28:48.158Z,42.07
2023-10-14T11:29:29.931Z,42.91
2023-10-14T11:30:07.581Z,42.74
2023-10-14T11:30:49.546Z,42.90
2023-10-14T11:31:24.679Z,41.97
2023-10-14T11:32:01.086Z,43.70
2023-10-14T11:32:33.121Z,43.85
2023-10-14T11:33:29.653Z,43.93
2023-10-14T11:34:20.456Z,42.19
2023-10-14T11:35:17.507Z,42.16
2023-10-14T11:35:55.801Z,42.83
2023-10-14T11:36:32.480Z,43.41
2023-10-14T11:38:20.636Z,42.77
2023-10-14T11:39:05.840Z,41.85
2023-10-14T11:39:50.248Z,42.01
2023-10-14T11:40:33.298Z,43.04
2023-10-14T11:41:17.089Z,41.89
2023-10-14T11:42:31.915Z,41.62
2023-10-14T11:43:15.083Z,41.16
2023-10-14T11:45:48.018Z,40.72
2023-10-14T11:47:21.751Z,41.68
2023-10-14T11:48:36.269Z,42.11
2023-10-14T11:49:32.519Z,42.08
2023-10-14T11:50:14.731Z,41.89
2023-10-14T11:51:06.875Z,42.01
2023-10-14T11:52:17.461Z,43.00
2023-10-14T11:53:39.818Z,42.10
2023-10-14T11:54:13.352Z,42.35
2023-10-14T11:54:50.522Z,42.92
2023-10-14T11:55:22.709Z,42.22
2023-10-14T11:56:00.731Z,41.71
2023-10-14T11:56:34.971Z,42.62
2023-10-14T11:57:54.689Z,43.00
2023-10-14T11:59:29.325Z,43.42
2023-10-14T12:01:15.760Z,42.92